This is the latest recevied weather packets stored in our database for station/object DG5MG. If no packets are shown the sender has not sent any weather packets the latest 10 day(s).
| Time | Temp. | Humidity | Pressure | Rain* | Wind** | Luminosity | Snow |
|---|---|---|---|---|---|---|---|
| 1777771505 | 9.44° C | 78% | 1021 hPa | 0 mm | - | 0 W/m² | - |
| 1777766706 | 9.44° C | 77% | 1021.2 hPa | 0 mm | - | 0 W/m² | - |
| 1777764606 | 10° C | 76% | 1021.7 hPa | 0 mm | - | 0 W/m² | - |
| 1777763706 | 10.56° C | 74% | 1021.7 hPa | 0 mm | - | 0 W/m² | - |
| 1777762805 | 10.56° C | 74% | 1021.7 hPa | 0 mm | - | 0 W/m² | - |
| 1777755005 | 13.33° C | 63% | 1022.7 hPa | 0 mm | - | 0 W/m² | - |
| 1777754406 | 13.89° C | 61% | 1022.7 hPa | 0 mm | - | 0 W/m² | - |
| 1777754106 | 14.44° C | 60% | 1022.7 hPa | 0 mm | - | 0 W/m² | - |
| 1777752305 | 15.56° C | 56% | 1022.7 hPa | 0 mm | - | 0 W/m² | - |
| 1777748405 | 18.89° C | 45% | 1022.7 hPa | 0 mm | - | 0 W/m² | - |
| 1777747505 | 19.44° C | 41% | 1022.7 hPa | 0 mm | - | 0 W/m² | - |
| 1777746905 | 20.56° C | 39% | 1022.4 hPa | 0 mm | - | 0 W/m² | - |
| 1777745705 | 21.11° C | 37% | 1022 hPa | 0 mm | - | 0 W/m² | - |
| 1777744521 | 22.22° C | 35% | 1022.4 hPa | 0 mm | - | 25 W/m² | - |
| 1777743305 | 22.78° C | 35% | 1022.4 hPa | 0 mm | - | 39 W/m² | - |
| 1777742105 | 22.78° C | 33% | 1022.4 hPa | 0 mm | - | 19 W/m² | - |
| 1777740605 | 24.44° C | 32% | 1022.4 hPa | 0 mm | - | 121 W/m² | - |
| 1777736106 | 26.67° C | 30% | 1023.4 hPa | 0 mm | - | 447 W/m² | - |
| 1777735505 | 26.67° C | 30% | 1023 hPa | 0 mm | - | 496 W/m² | - |
| 1777731006 | 25.56° C | 32% | 1023.7 hPa | 0 mm | - | 862 W/m² | - |
| 1777729805 | 27.22° C | 32% | 1024 hPa | 0 mm | - | 952 W/m² | - |
| 1777728605 | 26.67° C | 31% | 1024.4 hPa | 0 mm | - | 1034 W/m² | - |
| 1777728005 | 26.67° C | 32% | 1024.7 hPa | 0 mm | - | 1072 W/m² | - |
| 1777724421 | 26.11° C | 32% | 1025.4 hPa | 0 mm | - | 1243 W/m² | - |
| 1777723205 | 26.11° C | 34% | 1025.4 hPa | 0 mm | - | 1275 W/m² | - |
* Rain latest hour (hover to see other rain measurements)
** Current wind speed in m/s (hover to see current wind gust speed)